Time;durP1;ratioP1;P1;durP2;ratioP2;P2;SDS_P1;SDS_P2;PMS_P1;PMS_P2;Temp;Humidity;BMP_temperature;BMP_pressure;BME280_temperature;BME280_humidity;BME280_pressure;Samples;Min_cycle;Max_cycle;Signal;HPM_P1;HPM_P2
2021/01/27 00:00:09;;;;;;;13.07;8.20;;;2.80;99.90;;;;;;4979719;29;20523;-48
2021/01/27 00:02:36;;;;;;;16.10;8.70;;;2.70;99.90;;;;;;4979699;29;20420;-50
2021/01/27 00:05:04;;;;;;;12.70;7.77;;;2.70;99.90;;;;;;4979668;28;20564;-52
2021/01/27 00:07:30;;;;;;;13.80;9.33;;;2.70;99.90;;;;;;4979987;28;20540;-52
2021/01/27 00:09:57;;;;;;;16.00;9.33;;;2.70;99.90;;;;;;4979645;29;20480;-50
2021/01/27 00:12:23;;;;;;;14.80;10.10;;;2.80;99.90;;;;;;4979427;29;20435;-52
2021/01/27 00:14:49;;;;;;;17.00;9.77;;;2.70;99.90;;;;;;4979540;29;20468;-50
2021/01/27 00:17:16;;;;;;;16.47;10.10;;;2.60;99.90;;;;;;4979478;29;20472;-49
2021/01/27 00:19:43;;;;;;;17.07;9.73;;;2.70;99.90;;;;;;4979712;29;20499;-50
2021/01/27 00:22:09;;;;;;;15.37;7.70;;;2.60;99.90;;;;;;4979381;28;20454;-47
2021/01/27 00:24:36;;;;;;;18.90;11.90;;;2.60;99.90;;;;;;4978428;29;21053;-45
2021/01/27 00:27:02;;;;;;;18.30;10.27;;;2.50;99.90;;;;;;4968276;29;20854;-46
2021/01/27 00:29:29;;;;;;;17.47;10.33;;;2.50;99.90;;;;;;4977495;29;20505;-46
2021/01/27 00:31:55;;;;;;;17.60;10.63;;;2.40;99.90;;;;;;4967673;29;20476;-50
2021/01/27 00:34:21;;;;;;;26.73;13.00;;;2.50;99.90;;;;;;4978151;29;20469;-48
2021/01/27 00:36:50;;;;;;;17.40;9.80;;;2.50;99.90;;;;;;4976782;29;20551;-53
2021/01/27 00:39:16;;;;;;;18.37;10.70;;;2.50;99.90;;;;;;4976925;29;20541;-49
2021/01/27 00:41:43;;;;;;;25.60;11.93;;;2.40;99.90;;;;;;4976636;29;20471;-51
2021/01/27 00:44:09;;;;;;;19.90;11.13;;;2.60;99.90;;;;;;4975551;29;20476;-48
2021/01/27 00:46:35;;;;;;;22.50;11.27;;;2.60;99.90;;;;;;4976392;29;20463;-53
2021/01/27 00:49:03;;;;;;;20.57;10.17;;;2.60;99.90;;;;;;4975438;29;20499;-49
2021/01/27 00:51:29;;;;;;;22.37;11.33;;;2.60;99.90;;;;;;4975668;29;20519;-49
2021/01/27 00:53:57;;;;;;;15.53;9.90;;;2.60;99.90;;;;;;4976298;29;20491;-51
2021/01/27 00:56:24;;;;;;;20.13;10.23;;;2.60;99.90;;;;;;4975834;29;20475;-52
2021/01/27 00:58:50;;;;;;;21.93;11.67;;;2.60;99.90;;;;;;4975630;29;20487;-47
2021/01/27 01:01:16;;;;;;;18.13;10.00;;;2.60;99.90;;;;;;4976405;29;20504;-50
2021/01/27 01:03:43;;;;;;;15.47;9.00;;;2.60;99.90;;;;;;4976666;29;20479;-49
2021/01/27 01:06:10;;;;;;;18.20;10.97;;;2.60;99.90;;;;;;4975059;28;20535;-51
2021/01/27 01:08:36;;;;;;;23.80;11.87;;;2.60;99.90;;;;;;4958076;29;20453;-49
2021/01/27 01:11:08;;;;;;;22.33;9.03;;;2.60;99.90;;;;;;4963628;29;20452;-50
2021/01/27 01:13:38;;;;;;;19.37;10.10;;;2.70;99.90;;;;;;4978127;29;20460;-48
2021/01/27 01:16:05;;;;;;;18.03;8.90;;;2.70;99.90;;;;;;4963689;29;20444;-52
2021/01/27 01:18:31;;;;;;;20.60;11.47;;;2.70;99.90;;;;;;4973363;29;20492;-50
2021/01/27 01:20:58;;;;;;;16.23;8.30;;;2.70;99.90;;;;;;4977650;29;20499;-49
2021/01/27 01:23:25;;;;;;;18.37;8.77;;;2.70;99.90;;;;;;4960497;29;20504;-49
2021/01/27 01:25:51;;;;;;;18.60;10.40;;;2.60;99.90;;;;;;4953979;29;20475;-51
2021/01/27 01:28:19;;;;;;;25.83;11.97;;;2.70;99.90;;;;;;4953938;29;20534;-48
2021/01/27 01:30:47;;;;;;;16.67;9.90;;;2.70;99.90;;;;;;4955347;29;20472;-50
2021/01/27 01:33:15;;;;;;;20.10;10.30;;;2.70;99.90;;;;;;4955233;29;20448;-46
2021/01/27 01:35:43;;;;;;;17.00;9.67;;;2.70;99.90;;;;;;4956158;28;20463;-49
2021/01/27 01:38:09;;;;;;;19.23;9.70;;;2.70;99.90;;;;;;4958484;29;20486;-50
2021/01/27 01:40:38;;;;;;;17.93;9.87;;;2.70;99.90;;;;;;4957366;29;20535;-50
2021/01/27 01:43:09;;;;;;;23.00;10.07;;;2.60;99.90;;;;;;4940111;29;20806;-50
2021/01/27 01:45:39;;;;;;;19.53;9.43;;;2.60;99.90;;;;;;4939639;29;20471;-49
2021/01/27 01:48:14;;;;;;;17.67;9.63;;;2.60;99.90;;;;;;4950321;29;20455;-50
2021/01/27 01:50:40;;;;;;;19.97;10.17;;;2.60;99.90;;;;;;4959026;29;20860;-49
2021/01/27 01:53:07;;;;;;;16.80;9.90;;;2.60;99.90;;;;;;4958641;29;20941;-52
2021/01/27 01:55:34;;;;;;;15.93;10.07;;;2.60;99.90;;;;;;4958338;29;20460;-48
2021/01/27 01:58:01;;;;;;;15.30;9.80;;;2.70;99.90;;;;;;4958471;29;21000;-47
2021/01/27 02:00:31;;;;;;;17.67;9.40;;;2.60;99.90;;;;;;4958465;29;20466;-45
2021/01/27 02:02:59;;;;;;;21.70;10.40;;;2.60;99.90;;;;;;4958818;29;20498;-49
2021/01/27 02:05:27;;;;;;;17.90;10.10;;;2.60;99.90;;;;;;4958517;28;20482;-49
2021/01/27 02:07:55;;;;;;;20.10;9.60;;;2.60;99.90;;;;;;4958538;29;20856;-47
2021/01/27 02:10:21;;;;;;;17.50;8.17;;;2.60;99.90;;;;;;4958539;29;20760;-47
2021/01/27 02:13:24;;;;;;;20.07;9.20;;;2.50;99.90;;;;;;4958530;29;20455;-48
2021/01/27 02:16:05;;;;;;;17.40;9.97;;;2.60;99.90;;;;;;4893970;29;20515;-52
2021/01/27 02:18:49;;;;;;;16.23;8.97;;;2.60;99.90;;;;;;4945177;29;20854;-46
2021/01/27 02:21:45;;;;;;;18.93;9.80;;;2.50;99.90;;;;;;4958221;29;20510;-50
2021/01/27 06:11:11;;;;;;;31.43;15.53;;;2.60;99.90;;;;;;6053857;23;21487;31
2021/01/27 06:13:38;;;;;;;32.10;15.10;;;2.60;99.90;;;;;;4914347;29;20462;-49
2021/01/27 06:16:17;;;;;;;42.80;19.57;;;2.60;99.90;;;;;;4915823;29;20443;-52
2021/01/27 06:18:43;;;;;;;32.60;16.93;;;2.70;99.90;;;;;;4914446;29;20443;-51
2021/01/27 06:21:47;;;;;;;32.23;16.63;;;2.70;99.90;;;;;;4921712;29;20449;-52
2021/01/27 06:24:31;;;;;;;27.90;16.47;;;2.70;99.90;;;;;;4894447;29;20456;-47
2021/01/27 06:27:23;;;;;;;37.57;17.27;;;2.70;99.90;;;;;;4917540;29;20438;-51
2021/01/27 06:30:19;;;;;;;30.57;14.57;;;2.80;99.90;;;;;;4916157;29;20427;-48
2021/01/27 06:33:13;;;;;;;33.17;16.23;;;3.00;99.90;;;;;;4916077;29;20450;-49
2021/01/27 06:35:49;;;;;;;34.23;17.73;;;3.10;99.90;;;;;;4917116;29;20813;-48
2021/01/27 06:38:35;;;;;;;31.87;16.80;;;3.10;99.90;;;;;;4916883;29;20470;-48
2021/01/27 06:41:18;;;;;;;34.97;17.17;;;3.10;99.90;;;;;;4906682;29;20451;-50
2021/01/27 06:44:01;;;;;;;30.37;17.77;;;3.00;99.90;;;;;;4901342;29;20424;-49
2021/01/27 06:46:51;;;;;;;35.60;18.00;;;3.00;99.90;;;;;;4901428;29;20428;-49
2021/01/27 06:49:56;;;;;;;32.27;16.77;;;2.90;99.90;;;;;;4900851;29;20465;-47
2021/01/27 06:52:42;;;;;;;30.70;15.90;;;2.90;99.90;;;;;;4895378;29;20956;-47
2021/01/27 06:55:18;;;;;;;33.93;16.17;;;2.90;99.90;;;;;;4911782;29;20453;-51
2021/01/27 06:58:09;;;;;;;41.00;17.63;;;3.00;99.90;;;;;;4923373;29;20464;-50
2021/01/27 07:00:43;;;;;;;29.57;16.90;;;3.00;99.90;;;;;;4919765;29;20467;-51
2021/01/27 07:03:35;;;;;;;34.47;16.47;;;3.00;99.90;;;;;;4917118;29;20435;-47
2021/01/27 07:06:28;;;;;;;33.70;16.87;;;3.10;99.90;;;;;;4917593;29;20450;-50
2021/01/27 07:09:27;;;;;;;29.53;16.27;;;3.10;99.90;;;;;;4916015;29;20457;-47
2021/01/27 07:12:06;;;;;;;31.67;16.70;;;3.10;99.90;;;;;;4915978;29;20570;-53
2021/01/27 07:15:09;;;;;;;42.83;17.17;;;3.20;99.90;;;;;;4916164;29;20483;-49
2021/01/27 07:18:12;;;;;;;33.50;16.27;;;3.10;99.90;;;;;;4916044;29;20501;-47
2021/01/27 07:20:42;;;;;;;30.00;16.27;;;3.20;99.90;;;;;;4868620;29;20458;-52
2021/01/27 07:23:14;;;;;;;31.20;16.80;;;3.20;99.90;;;;;;4916173;29;20521;-50
2021/01/27 07:25:55;;;;;;;32.77;18.27;;;3.20;99.90;;;;;;4915500;29;20430;-50
2021/01/27 07:28:27;;;;;;;37.80;18.10;;;3.20;99.90;;;;;;4915575;29;20437;-51
2021/01/27 07:31:00;;;;;;;36.50;17.10;;;3.20;99.90;;;;;;4915325;29;20543;-52
2021/01/27 07:33:38;;;;;;;31.17;16.77;;;3.20;99.90;;;;;;4915216;29;20774;-49
2021/01/27 07:36:21;;;;;;;37.73;17.87;;;3.20;99.90;;;;;;4916626;29;20806;-49
2021/01/27 07:38:50;;;;;;;34.60;17.40;;;3.20;99.90;;;;;;4915585;29;20877;-50
2021/01/27 07:41:23;;;;;;;33.03;19.57;;;3.20;99.90;;;;;;4915008;29;20457;-52
2021/01/27 07:43:54;;;;;;;31.13;15.90;;;3.20;99.90;;;;;;4914516;29;20465;-49
2021/01/27 07:46:30;;;;;;;31.50;16.60;;;3.20;99.90;;;;;;4915707;29;20458;-53
2021/01/27 07:49:03;;;;;;;27.67;16.50;;;3.20;99.90;;;;;;4900688;29;20913;-47
2021/01/27 07:51:32;;;;;;;31.07;16.50;;;3.20;99.90;;;;;;4899794;29;20458;-48
2021/01/27 07:54:04;;;;;;;35.20;16.57;;;3.20;99.90;;;;;;4899851;29;20455;-49
2021/01/27 07:56:34;;;;;;;24.23;14.17;;;3.20;99.90;;;;;;4899366;29;20494;-51
2021/01/27 07:59:08;;;;;;;28.80;15.30;;;3.20;99.90;;;;;;4899390;29;20933;-50
2021/01/27 08:01:42;;;;;;;32.63;14.83;;;3.20;99.90;;;;;;4899495;29;20929;-47
2021/01/27 08:04:20;;;;;;;30.80;14.80;;;3.20;99.90;;;;;;4899424;29;20533;-46
2021/01/27 08:06:49;;;;;;;32.90;16.53;;;3.20;99.90;;;;;;4968401;23;20527;-50
2021/01/27 08:09:27;;;;;;;28.70;14.77;;;3.20;99.90;;;;;;4956388;29;20448;-53
2021/01/27 08:12:10;;;;;;;30.37;16.27;;;3.30;99.90;;;;;;4956385;29;20455;-51
2021/01/27 08:14:58;;;;;;;32.93;16.60;;;3.20;99.90;;;;;;4955985;29;20470;-49
2021/01/27 08:17:48;;;;;;;33.20;16.00;;;3.20;99.90;;;;;;4957680;29;20479;-47
2021/01/27 08:20:24;;;;;;;27.93;15.03;;;3.20;99.90;;;;;;4979969;28;20440;-48
2021/01/27 08:22:52;;;;;;;27.37;15.63;;;3.20;99.90;;;;;;4979841;29;20471;-51
2021/01/27 08:25:54;;;;;;;31.93;18.00;;;3.20;99.90;;;;;;4979575;29;20503;-53
2021/01/27 08:28:44;;;;;;;32.37;18.10;;;3.20;99.90;;;;;;4979460;28;20435;-48
2021/01/27 08:31:21;;;;;;;28.77;15.10;;;3.20;99.90;;;;;;4964100;29;20568;-46
2021/01/27 08:33:54;;;;;;;29.53;16.80;;;3.20;99.90;;;;;;4950519;29;20447;-47
2021/01/27 08:36:38;;;;;;;35.17;18.80;;;3.20;99.90;;;;;;4954044;29;20455;-53
2021/01/27 08:39:10;;;;;;;36.00;18.90;;;3.20;99.90;;;;;;4935981;29;20469;-52
2021/01/27 08:41:45;;;;;;;30.47;15.90;;;3.30;99.90;;;;;;4950290;29;20444;-51
2021/01/27 08:44:26;;;;;;;30.30;16.20;;;3.20;99.90;;;;;;4959709;29;20417;-51
2021/01/27 08:46:54;;;;;;;30.07;16.73;;;3.30;99.90;;;;;;4960161;29;20413;-51
2021/01/27 08:49:48;;;;;;;29.90;16.20;;;3.30;99.90;;;;;;4955300;29;20441;-50
2021/01/27 08:52:45;;;;;;;28.60;14.23;;;3.40;99.90;;;;;;4944135;29;20448;-50
2021/01/27 08:55:35;;;;;;;25.20;14.77;;;3.40;99.90;;;;;;4936717;29;20500;-47
2021/01/27 08:58:39;;;;;;;26.37;14.33;;;3.40;99.90;;;;;;4936824;29;20507;-49
2021/01/27 09:01:12;;;;;;;33.40;17.57;;;3.40;99.90;;;;;;4936925;29;20447;-53
2021/01/27 17:51:04;;;;;;;13.17;7.80;;;4.10;99.90;;;;;;5031760;23;20513;-54
2021/01/27 17:53:34;;;;;;;12.40;7.70;;;4.10;99.90;;;;;;4967782;29;20444;-53
2021/01/27 17:56:00;;;;;;;11.40;7.07;;;4.00;99.90;;;;;;4976449;29;20420;-52
2021/01/27 17:58:26;;;;;;;11.67;7.87;;;4.00;99.90;;;;;;4975737;29;20472;-52
2021/01/27 18:00:53;;;;;;;11.63;7.57;;;4.00;99.90;;;;;;4967343;29;20938;-47
2021/01/27 18:03:20;;;;;;;11.20;8.03;;;3.90;99.90;;;;;;4970584;28;20440;-49
2021/01/27 18:05:46;;;;;;;7.60;6.00;;;3.90;99.90;;;;;;4967073;29;20511;-49
2021/01/27 18:08:18;;;;;;;10.03;7.30;;;3.80;99.90;;;;;;4966130;29;20444;-48
2021/01/27 18:10:44;;;;;;;10.50;5.70;;;3.80;99.90;;;;;;4966649;29;20440;-44
2021/01/27 18:13:12;;;;;;;11.53;6.80;;;3.80;99.90;;;;;;4968206;28;20500;-45
2021/01/27 18:15:40;;;;;;;11.20;6.77;;;3.70;99.90;;;;;;4966627;29;20534;-48
2021/01/27 18:18:08;;;;;;;15.13;7.77;;;3.70;99.90;;;;;;4968634;28;20472;-50
2021/01/27 18:20:36;;;;;;;9.53;5.67;;;3.70;99.90;;;;;;4970247;29;20475;-47
2021/01/27 18:23:04;;;;;;;10.27;6.63;;;3.80;99.90;;;;;;4969656;28;20439;-48
2021/01/27 18:25:34;;;;;;;11.03;6.03;;;3.80;99.90;;;;;;4969169;29;20463;-45
2021/01/27 18:28:01;;;;;;;10.33;5.80;;;3.80;99.90;;;;;;4968698;29;20503;-50
2021/01/27 18:30:30;;;;;;;7.67;5.77;;;3.80;99.90;;;;;;4973443;28;20474;-50
2021/01/27 18:32:57;;;;;;;14.03;6.87;;;3.90;99.90;;;;;;4973637;29;20460;-49
2021/01/27 18:35:26;;;;;;;9.23;6.70;;;3.90;99.90;;;;;;4978205;28;20454;-49
2021/01/27 18:37:53;;;;;;;9.53;6.37;;;3.90;99.90;;;;;;4967359;29;20484;-47
2021/01/27 18:40:20;;;;;;;10.77;6.50;;;3.80;99.90;;;;;;4969868;28;20476;-46
2021/01/27 18:42:48;;;;;;;9.20;5.37;;;3.80;99.90;;;;;;4968140;29;20452;-45
2021/01/27 18:45:17;;;;;;;10.30;6.40;;;3.80;99.90;;;;;;4969206;29;20484;-45
2021/01/27 18:47:44;;;;;;;9.40;5.83;;;3.80;99.90;;;;;;4967072;29;20856;-48
2021/01/27 18:50:11;;;;;;;12.60;7.33;;;3.80;99.90;;;;;;4967942;29;20479;-47
2021/01/27 18:52:38;;;;;;;9.87;5.77;;;3.80;99.90;;;;;;4968805;29;20556;-46
2021/01/27 18:55:06;;;;;;;11.03;6.40;;;3.80;99.90;;;;;;4968838;28;20491;-50
2021/01/27 18:57:32;;;;;;;8.17;6.10;;;3.70;99.90;;;;;;4967507;29;20483;-47
2021/01/27 19:00:00;;;;;;;9.27;5.97;;;3.70;99.90;;;;;;4965313;28;20454;-47
2021/01/27 19:02:26;;;;;;;9.70;6.80;;;3.80;99.90;;;;;;4970392;28;20447;-47
2021/01/27 19:04:54;;;;;;;9.00;7.27;;;3.80;99.90;;;;;;4966277;29;20454;-50
2021/01/27 19:07:20;;;;;;;13.13;7.47;;;3.80;99.90;;;;;;4960557;28;20798;-47
2021/01/27 19:09:46;;;;;;;13.00;8.63;;;3.80;99.90;;;;;;4963950;28;20444;-48
2021/01/27 19:12:13;;;;;;;9.70;5.87;;;3.80;99.90;;;;;;4960858;29;20452;-49
2021/01/27 19:14:48;;;;;;;6.73;5.87;;;3.70;99.90;;;;;;4961196;29;20444;-50
2021/01/27 19:17:16;;;;;;;8.87;6.00;;;3.70;99.90;;;;;;4959529;29;20489;-50
2021/01/27 19:19:46;;;;;;;10.10;5.60;;;3.60;99.90;;;;;;4961652;29;20478;-49
2021/01/27 19:22:12;;;;;;;12.00;7.57;;;3.60;99.90;;;;;;4969000;29;20468;-48
2021/01/27 19:24:39;;;;;;;8.40;6.10;;;3.50;99.90;;;;;;4967625;29;20945;-49
2021/01/27 19:27:08;;;;;;;11.20;7.07;;;3.50;99.90;;;;;;4961002;29;20629;-49
2021/01/27 19:29:35;;;;;;;8.90;6.90;;;3.40;99.90;;;;;;4960117;28;21003;-50
2021/01/27 19:32:02;;;;;;;9.80;7.00;;;3.40;99.90;;;;;;4963426;28;20761;-51
2021/01/27 19:34:30;;;;;;;8.60;6.00;;;3.40;99.90;;;;;;4960479;29;20452;-47
2021/01/27 19:36:57;;;;;;;12.30;7.53;;;3.40;99.90;;;;;;4968724;28;20448;-50
2021/01/27 19:39:23;;;;;;;10.03;6.60;;;3.40;99.90;;;;;;4969869;28;20464;-50
2021/01/27 19:41:50;;;;;;;12.97;7.33;;;3.40;99.90;;;;;;4970509;28;20452;-46
2021/01/27 19:44:17;;;;;;;10.07;7.50;;;3.40;99.90;;;;;;4970354;28;20447;-46
2021/01/27 19:46:44;;;;;;;10.93;6.53;;;3.40;99.90;;;;;;4969312;28;20463;-48
2021/01/27 19:49:10;;;;;;;10.30;6.50;;;3.40;99.90;;;;;;4976309;29;20495;-53
2021/01/27 19:51:38;;;;;;;12.10;7.20;;;3.40;99.90;;;;;;4981349;28;20448;-50
2021/01/27 19:54:06;;;;;;;10.00;6.60;;;3.40;99.90;;;;;;4978269;29;20482;-47
2021/01/27 19:56:33;;;;;;;13.13;6.20;;;3.30;99.90;;;;;;4971117;29;20762;-46
2021/01/27 19:59:00;;;;;;;12.07;7.13;;;3.30;99.90;;;;;;4968274;29;21039;-47
2021/01/27 20:01:28;;;;;;;13.57;7.73;;;3.30;99.90;;;;;;4970001;28;20523;-48
2021/01/27 20:03:54;;;;;;;9.83;7.43;;;3.30;99.90;;;;;;4969269;29;20448;-51
2021/01/27 20:06:21;;;;;;;10.80;6.83;;;3.30;99.90;;;;;;4969018;29;20455;-51
2021/01/27 20:08:48;;;;;;;10.37;6.63;;;3.30;99.90;;;;;;4968068;28;20511;-52
2021/01/27 20:11:15;;;;;;;9.33;6.07;;;3.20;99.90;;;;;;4968968;29;20444;-49
2021/01/27 20:13:42;;;;;;;11.23;7.67;;;3.20;99.90;;;;;;4971658;28;20468;-49
2021/01/27 20:16:08;;;;;;;9.30;6.40;;;3.20;99.90;;;;;;4977335;29;20440;-51
2021/01/27 20:18:36;;;;;;;10.70;6.47;;;3.20;99.90;;;;;;4977381;29;20463;-49
2021/01/27 20:21:03;;;;;;;9.50;7.30;;;3.20;99.90;;;;;;4978134;29;20447;-50
2021/01/27 20:23:30;;;;;;;10.97;8.20;;;3.20;99.90;;;;;;4977832;29;20443;-51
2021/01/27 20:25:59;;;;;;;20.87;10.60;;;3.30;99.90;;;;;;4978110;29;20440;-50
2021/01/27 20:28:27;;;;;;;17.43;8.90;;;3.30;99.90;;;;;;4978165;29;20468;-51
2021/01/27 20:30:55;;;;;;;11.57;7.30;;;3.30;99.90;;;;;;4978192;29;20515;-48
2021/01/27 20:33:23;;;;;;;16.87;7.67;;;3.30;99.90;;;;;;4977716;29;20427;-50
2021/01/27 20:35:50;;;;;;;10.90;7.20;;;3.30;99.90;;;;;;4977637;29;20479;-51
2021/01/27 20:38:20;;;;;;;12.40;7.13;;;3.40;99.90;;;;;;4977025;29;20480;-54
2021/01/27 20:40:48;;;;;;;12.20;7.00;;;3.40;99.90;;;;;;4977013;28;20444;-48
2021/01/27 20:43:16;;;;;;;11.60;7.20;;;3.50;99.90;;;;;;4977482;29;20447;-52
2021/01/27 20:45:44;;;;;;;12.33;6.23;;;3.40;99.90;;;;;;4977588;29;20448;-51
2021/01/27 20:48:11;;;;;;;6.50;5.20;;;3.50;99.90;;;;;;4977445;29;20533;-47
2021/01/27 20:50:38;;;;;;;14.23;7.70;;;3.60;99.90;;;;;;4977026;29;20467;-50
2021/01/27 20:53:07;;;;;;;10.03;6.53;;;3.50;99.90;;;;;;4977169;29;20563;-46
2021/01/27 20:55:34;;;;;;;11.23;6.10;;;3.60;99.90;;;;;;4976101;28;20514;-49
2021/01/27 20:58:01;;;;;;;9.23;5.20;;;3.60;99.90;;;;;;4966699;29;20511;-50
2021/01/27 21:00:30;;;;;;;8.77;6.83;;;3.60;99.90;;;;;;4968933;28;20519;-50
2021/01/27 21:02:57;;;;;;;11.10;7.50;;;3.60;99.90;;;;;;4971329;28;20530;-48
2021/01/27 21:05:24;;;;;;;15.13;6.93;;;3.60;99.90;;;;;;4971300;28;20448;-51
2021/01/27 21:07:51;;;;;;;21.80;10.53;;;3.60;99.90;;;;;;4970175;28;20503;-52
2021/01/27 21:10:23;;;;;;;16.60;8.67;;;3.60;99.90;;;;;;4967488;29;20446;-50
2021/01/27 21:12:57;;;;;;;17.23;9.33;;;3.60;99.90;;;;;;4970406;29;20440;-52
2021/01/27 21:15:26;;;;;;;11.80;7.20;;;3.60;99.90;;;;;;4981078;28;20474;-53
2021/01/27 21:17:53;;;;;;;18.10;9.43;;;3.60;99.90;;;;;;4976194;29;20499;-52
2021/01/27 21:20:21;;;;;;;12.87;6.70;;;3.70;99.90;;;;;;4976123;29;20448;-48
2021/01/27 21:22:49;;;;;;;11.80;6.50;;;3.70;99.90;;;;;;4976703;29;20451;-52
2021/01/27 21:25:16;;;;;;;12.13;7.37;;;3.70;99.90;;;;;;4970698;28;20459;-48
2021/01/27 21:27:43;;;;;;;10.73;6.37;;;3.70;99.90;;;;;;4965102;29;20483;-52
2021/01/27 21:30:12;;;;;;;8.47;5.80;;;3.80;99.90;;;;;;4970007;28;20614;-50
2021/01/27 21:32:39;;;;;;;7.80;5.47;;;3.80;99.90;;;;;;4966784;29;20505;-50
2021/01/27 21:35:10;;;;;;;8.77;6.03;;;3.80;99.90;;;;;;4971799;28;20515;-52
2021/01/27 21:37:36;;;;;;;10.53;6.37;;;3.80;99.90;;;;;;4963307;28;20474;-49
2021/01/27 21:40:04;;;;;;;7.73;5.80;;;3.80;99.90;;;;;;4966013;29;20439;-49
2021/01/27 21:42:30;;;;;;;12.00;5.90;;;3.80;99.90;;;;;;4966639;29;20798;-46
2021/01/27 21:44:56;;;;;;;23.27;11.80;;;3.80;99.90;;;;;;4969035;28;20447;-48
2021/01/27 21:47:23;;;;;;;10.80;6.50;;;3.80;99.90;;;;;;4966637;29;20603;-45
2021/01/27 21:49:49;;;;;;;6.70;5.20;;;3.90;99.90;;;;;;4967354;29;20630;-51
2021/01/27 21:52:16;;;;;;;7.03;5.23;;;3.80;99.90;;;;;;4968711;28;20460;-51
2021/01/27 21:54:42;;;;;;;8.50;5.50;;;3.90;99.90;;;;;;4971760;29;20444;-50
2021/01/27 21:57:09;;;;;;;10.23;7.10;;;3.90;99.90;;;;;;4968544;29;20555;-47
2021/01/27 21:59:35;;;;;;;9.90;6.23;;;3.80;99.90;;;;;;4971054;29;20458;-49
2021/01/27 22:02:01;;;;;;;10.60;5.90;;;3.90;99.90;;;;;;4971635;28;20936;-46
2021/01/27 22:04:27;;;;;;;10.20;6.40;;;3.90;99.90;;;;;;4970684;29;20630;-49
2021/01/27 22:06:54;;;;;;;8.30;6.03;;;3.90;99.90;;;;;;4970609;29;20479;-47
2021/01/27 22:09:21;;;;;;;14.03;7.47;;;4.00;99.90;;;;;;4967671;29;20477;-53
2021/01/27 22:11:47;;;;;;;10.00;6.60;;;4.00;99.90;;;;;;4974973;28;20455;-46
2021/01/27 22:14:14;;;;;;;12.40;7.13;;;4.00;99.90;;;;;;4971964;29;20541;-47
2021/01/27 22:16:40;;;;;;;11.47;6.40;;;4.10;99.90;;;;;;4972634;29;20470;-52
2021/01/27 22:19:06;;;;;;;8.60;6.23;;;4.10;99.90;;;;;;4970418;29;20957;-51
2021/01/27 22:21:33;;;;;;;6.23;5.37;;;4.00;99.90;;;;;;4972003;28;20455;-47
2021/01/27 22:23:59;;;;;;;9.03;6.40;;;4.10;99.90;;;;;;4971430;28;20566;-49
2021/01/27 22:26:26;;;;;;;13.27;9.37;;;4.10;99.90;;;;;;4974990;28;20446;-49
2021/01/27 22:28:52;;;;;;;8.57;6.37;;;4.10;99.90;;;;;;4967599;29;20448;-54
2021/01/27 22:31:19;;;;;;;15.27;9.67;;;4.00;99.90;;;;;;4969385;29;20455;-51
2021/01/27 22:33:46;;;;;;;8.70;6.00;;;4.10;99.90;;;;;;4970659;29;20930;-50
2021/01/27 22:36:12;;;;;;;8.50;6.07;;;4.00;99.90;;;;;;4971076;29;20458;-50
2021/01/27 22:38:40;;;;;;;9.27;5.90;;;4.00;99.90;;;;;;4971420;29;20515;-49
2021/01/27 22:41:06;;;;;;;10.37;7.43;;;4.00;99.90;;;;;;4965832;29;20453;-52
2021/01/27 22:43:33;;;;;;;8.63;6.53;;;4.10;99.90;;;;;;4970895;29;20475;-48
2021/01/27 22:46:00;;;;;;;11.00;7.27;;;4.10;99.90;;;;;;4970916;29;20915;-54
2021/01/27 22:48:27;;;;;;;7.73;6.43;;;4.10;99.90;;;;;;4974974;28;20460;-50
2021/01/27 22:50:54;;;;;;;10.27;6.57;;;4.00;99.90;;;;;;4975601;29;20483;-51
2021/01/27 22:53:20;;;;;;;10.40;6.53;;;3.90;99.90;;;;;;4969740;29;20462;-52
2021/01/27 22:55:50;;;;;;;11.50;6.97;;;3.90;99.90;;;;;;4961361;28;20777;-49
2021/01/27 22:58:16;;;;;;;11.93;7.90;;;3.90;99.90;;;;;;4963518;29;20971;-47
2021/01/27 23:00:44;;;;;;;9.40;7.43;;;3.80;99.90;;;;;;4963082;29;20452;-48
2021/01/27 23:03:13;;;;;;;9.33;6.57;;;3.80;99.90;;;;;;4962499;28;20499;-51
2021/01/27 23:05:41;;;;;;;11.20;7.07;;;3.80;99.90;;;;;;4963927;29;20466;-47
2021/01/27 23:08:10;;;;;;;10.60;7.30;;;3.70;99.90;;;;;;4963209;29;20475;-50
2021/01/27 23:10:37;;;;;;;11.97;8.10;;;3.70;99.90;;;;;;4964068;29;20447;-51
2021/01/27 23:13:05;;;;;;;11.07;8.03;;;3.70;99.90;;;;;;4963673;28;20451;-49
2021/01/27 23:15:33;;;;;;;9.23;6.80;;;3.70;99.90;;;;;;4963456;29;20455;-46
2021/01/27 23:18:00;;;;;;;11.00;7.93;;;3.70;99.90;;;;;;4966418;28;20474;-49
2021/01/27 23:20:30;;;;;;;11.73;7.80;;;3.60;99.90;;;;;;4965268;28;20842;-49
2021/01/27 23:22:58;;;;;;;12.30;8.43;;;3.60;99.90;;;;;;4964451;29;20447;-46
2021/01/27 23:25:24;;;;;;;12.50;8.10;;;3.60;99.90;;;;;;4964995;28;20464;-48
2021/01/27 23:27:52;;;;;;;12.53;9.23;;;3.60;99.90;;;;;;4967872;28;20444;-53
2021/01/27 23:30:23;;;;;;;9.17;6.93;;;3.60;99.90;;;;;;4958883;29;20444;-51
2021/01/27 23:32:50;;;;;;;12.37;8.93;;;3.60;99.90;;;;;;4969310;28;20468;-48
2021/01/27 23:35:22;;;;;;;19.10;9.70;;;3.60;99.90;;;;;;4962580;29;20522;-51
2021/01/27 23:37:49;;;;;;;15.33;9.47;;;3.60;99.90;;;;;;4961819;28;20471;-50
2021/01/27 23:40:16;;;;;;;21.20;8.77;;;3.50;99.90;;;;;;4961458;29;20538;-50
2021/01/27 23:42:43;;;;;;;15.00;8.70;;;3.40;99.90;;;;;;4962506;28;20484;-49
2021/01/27 23:45:12;;;;;;;13.33;8.67;;;3.50;99.90;;;;;;4961457;29;20452;-52
2021/01/27 23:47:39;;;;;;;12.33;9.20;;;3.50;99.90;;;;;;4958245;28;20506;-52
2021/01/27 23:50:08;;;;;;;12.00;7.93;;;3.50;99.90;;;;;;4959531;28;20906;-50
2021/01/27 23:52:36;;;;;;;12.67;7.67;;;3.50;99.90;;;;;;4962245;29;20815;-54
2021/01/27 23:55:03;;;;;;;12.97;8.83;;;3.50;99.90;;;;;;4962649;28;20448;-51
2021/01/27 23:57:29;;;;;;;13.23;8.80;;;3.50;99.90;;;;;;4962309;29;20487;-49
2021/01/27 23:59:56;;;;;;;11.47;8.50;;;3.40;99.90;;;;;;4961980;29;20460;-49
